Weather History for Sparta, WI

Change the Weather History Date:

Saturday, September 27, 2014

  Actual Average Record
Temperature  
Mean Temperature 66 °F -  
Max Temperature 81 °F 68 °F 83 °F (1979)
Min Temperature 50 °F 42 °F 24 °F (1991)
Growing Degree Days 16 (Base 50)    
Moisture  
Dew Point 54 °F    
Average Humidity 73    
Maximum Humidity 100    
Minimum Humidity 37    
Precipitation  
Precipitation 0.00 in - - ()
Sea Level Pressure  
Sea Level Pressure 30.20 in    
Wind  
Wind Speed 2 mph (SSE)    
Max Wind Speed 10 mph    
Max Gust Speed -    
Visibility 10 miles    
Events      
Averages and records for this station are not official NWS values.
T = Trace of Precipitation, MM = Missing Value Source: NWS Daily Summary

Daily Weather History Graph

Daily Weather History Graph

Search for Another Location

Airport:

Trip Planner

Search our weather history database for the weather conditions in past years. The results will help you decide how hot, cold, wet, or windy it might be!

Date:

Astronomy

Sep. 27, 2014 Rise Set
Actual Time 6:55 AM CDT 6:51 PM CDT
Civil Twilight 6:27 AM CDT 7:19 PM CDT
Nautical Twilight 5:53 AM CDT 7:53 PM CDT
Astronomical Twilight 5:19 AM CDT 8:27 PM CDT
Moon 10:17 AM CDT (9/27) 8:43 PM CDT (9/27)
Length of Visible Light 12h 52m
Length of Day
11h 55m
Waxing Crescent, 11% of the Moon is Illuminated
Sep 27
Waxing Crescent
Oct 1
First Quarter
Oct 8
Full
Oct 15
Last Quarter
Oct 23
New

Hourly Weather History & Observations

Time (CDT) Temp. Heat Index Dew Point Humidity Pressure Visibility Wind Dir Wind Speed Gust Speed Precip Events Conditions
12:10 AM 53.8 °F - 52.3 °F 95% 30.20 in 10.0 mi WNW 3.5 mph - N/A   Clear
12:35 AM 53.1 °F - 52.0 °F 96% 30.20 in 10.0 mi Calm Calm - N/A   Clear
1:15 AM 52.9 °F - 51.6 °F 95% 30.20 in 10.0 mi Calm Calm - N/A   Clear
1:35 AM 53.1 °F - 51.4 °F 94% 30.21 in 10.0 mi Calm Calm - N/A   Clear
1:55 AM 51.8 °F - 51.8 °F 100% 30.22 in 10.0 mi Calm Calm - N/A   Clear
2:20 AM 52.2 °F - 51.1 °F 96% 30.22 in 10.0 mi Calm Calm - N/A   Clear
2:35 AM 52.5 °F - 51.1 °F 95% 30.22 in 10.0 mi Calm Calm - N/A   Clear
3:15 AM 51.8 °F - 51.8 °F 100% 30.22 in 10.0 mi Calm Calm - N/A   Clear
3:35 AM 51.8 °F - 50.0 °F 94% 30.22 in 10.0 mi Calm Calm - N/A   Clear
3:55 AM 51.8 °F - 50.0 °F 94% 30.22 in 10.0 mi Calm Calm - N/A   Clear
4:15 AM 51.8 °F - 50.0 °F 94% 30.22 in 10.0 mi Calm Calm - N/A   Clear
4:35 AM 51.8 °F - 51.8 °F 100% 30.22 in 10.0 mi Calm Calm - N/A   Clear
4:55 AM 51.8 °F - 51.8 °F 100% 30.23 in 7.0 mi Calm Calm - N/A   Clear
5:15 AM 50.0 °F - 48.2 °F 94% 30.23 in 10.0 mi Calm Calm - N/A   Clear
5:55 AM 50.2 °F - 48.9 °F 95% 30.23 in 10.0 mi Calm Calm - N/A   Clear
6:15 AM 50.9 °F - 49.5 °F 95% 30.23 in 10.0 mi Calm Calm - N/A   Clear
6:30 AM 50.4 °F - 49.1 °F 95% 30.23 in 10.0 mi Calm Calm - N/A   Clear
6:35 AM 50.0 °F - 48.2 °F 94% 30.23 in 10.0 mi Calm Calm - N/A   Clear
7:00 AM 50.9 °F - 50.0 °F 97% 30.24 in 10.0 mi Calm Calm - N/A   Scattered Clouds
7:10 AM 52.2 °F - 51.1 °F 96% 30.24 in 10.0 mi Calm Calm - N/A   Scattered Clouds
7:35 AM 53.6 °F - 52.0 °F 94% 30.24 in 7.0 mi Calm Calm - N/A   Scattered Clouds
8:15 AM 56.1 °F - 54.5 °F 94% 30.25 in 10.0 mi Calm Calm - N/A   Scattered Clouds
8:35 AM 58.8 °F - 56.1 °F 91% 30.25 in 10.0 mi Calm Calm - N/A   Clear
8:55 AM 59.9 °F - 56.3 °F 88% 30.25 in 10.0 mi Calm Calm - N/A   Clear
9:15 AM 64.4 °F - 55.4 °F 73% 30.25 in 10.0 mi Calm Calm - N/A   Clear
9:20 AM 64.4 °F - 54.1 °F 69% 30.25 in 10.0 mi Calm Calm - N/A   Clear
9:35 AM 65.8 °F - 54.5 °F 67% 30.25 in 10.0 mi Calm Calm - N/A   Clear
9:55 AM 68.2 °F - 55.8 °F 64% 30.25 in 10.0 mi Calm Calm - N/A   Clear
10:35 AM 71.1 °F - 54.1 °F 55% 30.24 in 10.0 mi SW 3.5 mph - N/A   Clear
10:55 AM 73.9 °F - 54.3 °F 50% 30.24 in 10.0 mi SSE 4.6 mph - N/A   Clear
11:10 AM 74.7 °F - 54.1 °F 49% 30.23 in 10.0 mi South 3.5 mph - N/A   Clear
11:35 AM 76.3 °F - 54.1 °F 46% 30.23 in 10.0 mi South 3.5 mph - N/A   Clear
11:55 AM 77.4 °F - 54.0 °F 44% 30.22 in 10.0 mi SE 4.6 mph - N/A   Clear
12:15 PM 78.3 °F - 53.2 °F 42% 30.22 in 10.0 mi South 6.9 mph - N/A   Clear
12:35 PM 79.3 °F - 53.4 °F 41% 30.22 in 10.0 mi SSE 6.9 mph - N/A   Clear
12:55 PM 79.9 °F - 53.6 °F 40% 30.22 in 10.0 mi South 5.8 mph - N/A   Clear
1:15 PM 80.4 °F 80.2 °F 54.3 °F 40% 30.21 in 10.0 mi South 6.9 mph - N/A   Clear
1:35 PM 79.3 °F - 53.1 °F 40% 30.20 in 10.0 mi South 8.1 mph - N/A   Clear
1:55 PM 80.1 °F 80.0 °F 54.0 °F 40% 30.20 in 10.0 mi South 5.8 mph - N/A   Clear
2:15 PM 79.9 °F - 52.2 °F 38% 30.19 in 10.0 mi South 4.6 mph - N/A   Clear
2:35 PM 80.8 °F - 52.0 °F 37% 30.18 in 10.0 mi SSE 8.1 mph - N/A   Clear
2:55 PM 81.5 °F 80.7 °F 53.1 °F 37% 30.18 in 10.0 mi South 10.4 mph - N/A   Clear
3:15 PM 81.1 °F 80.6 °F 53.6 °F 38% 30.17 in 10.0 mi South 6.9 mph - N/A   Clear
3:35 PM 80.6 °F - 52.7 °F 38% 30.17 in 10.0 mi South 6.9 mph - N/A   Clear
3:55 PM 81.0 °F 80.5 °F 53.6 °F 39% 30.16 in 10.0 mi South 10.4 mph - N/A   Clear
4:15 PM 80.6 °F 80.3 °F 53.2 °F 39% 30.15 in 10.0 mi SSE 10.4 mph - N/A   Clear
4:35 PM 80.4 °F 80.2 °F 54.1 °F 40% 30.15 in 10.0 mi SE 8.1 mph - N/A   Clear
4:55 PM 79.7 °F - 53.4 °F 40% 30.15 in 10.0 mi ESE 5.8 mph - N/A   Clear
5:15 PM 79.2 °F - 54.0 °F 42% 30.15 in 10.0 mi SE 8.1 mph - N/A   Clear
5:50 PM 77.4 °F - 54.5 °F 45% 30.15 in 10.0 mi SE 4.6 mph - N/A   Clear
6:15 PM 75.4 °F - 55.9 °F 51% 30.15 in 10.0 mi SE 3.5 mph - N/A   Clear
6:35 PM 73.4 °F - 56.1 °F 55% 30.15 in 10.0 mi SE 3.5 mph - N/A   Clear
6:55 PM 69.1 °F - 58.1 °F 68% 30.15 in 10.0 mi ESE 3.5 mph - N/A   Clear
7:15 PM 65.8 °F - 57.7 °F 75% 30.15 in 10.0 mi East 3.5 mph - N/A   Clear
7:35 PM 64.6 °F - 57.4 °F 77% 30.15 in 10.0 mi ESE 4.6 mph - N/A   Clear
7:50 PM 64.0 °F - 57.2 °F 78% 30.15 in 10.0 mi East 3.5 mph - N/A   Clear
8:15 PM 63.5 °F - 57.7 °F 81% 30.16 in 10.0 mi East 4.6 mph - N/A   Clear
8:35 PM 62.6 °F - 57.6 °F 84% 30.16 in 10.0 mi Calm Calm - N/A   Clear
8:55 PM 62.1 °F - 57.7 °F 86% 30.16 in 10.0 mi Calm Calm - N/A   Clear
9:15 PM 59.4 °F - 57.2 °F 93% 30.17 in 10.0 mi Calm Calm - N/A   Clear
9:35 PM 57.6 °F - 55.9 °F 94% 30.17 in 7.0 mi Calm Calm - N/A   Clear
9:55 PM 57.4 °F - 55.4 °F 93% 30.18 in 10.0 mi Calm Calm - N/A   Clear
10:15 PM 56.5 °F - 55.0 °F 95% 30.18 in 7.0 mi Calm Calm - N/A   Clear
10:35 PM 56.8 °F - 55.8 °F 96% 30.18 in 5.0 mi Calm Calm - N/A   Clear
10:55 PM 55.9 °F - 55.0 °F 97% 30.18 in 7.0 mi Calm Calm - N/A   Clear
11:15 PM 55.8 °F - 54.7 °F 96% 30.18 in 10.0 mi Calm Calm - N/A   Clear
11:55 PM 54.1 °F - 53.2 °F 97% 30.18 in 5.0 mi Calm Calm - N/A   Clear